sensor_id;sensor_type;location;lat;lon;timestamp;P1;durP1;ratioP1;P2;durP2;ratioP2
26824;SDS011;14402;48.178;11.566;2023-12-29T00:00:17;2.0;;;1.4;;
26824;SDS011;14402;48.178;11.566;2023-12-29T00:00:47;2.0;;;1.3;;
26824;SDS011;14402;48.178;11.566;2023-12-29T00:01:17;2.0;;;1.3;;
26824;SDS011;14402;48.178;11.566;2023-12-29T00:01:47;2.0;;;1.3;;
26824;SDS011;14402;48.178;11.566;2023-12-29T00:02:17;2.0;;;1.3;;
26824;SDS011;14402;48.178;11.566;2023-12-29T00:02:47;1.9;;;1.5;;
26824;SDS011;14402;48.178;11.566;2023-12-29T00:03:17;1.8;;;1.6;;
26824;SDS011;14402;48.178;11.566;2023-12-29T00:03:47;1.8;;;1.6;;
26824;SDS011;14402;48.178;11.566;2023-12-29T00:04:17;1.8;;;1.6;;
26824;SDS011;14402;48.178;11.566;2023-12-29T00:04:47;1.8;;;1.5;;
26824;SDS011;14402;48.178;11.566;2023-12-29T00:05:17;1.8;;;1.4;;
26824;SDS011;14402;48.178;11.566;2023-12-29T00:05:47;1.8;;;1.4;;
26824;SDS011;14402;48.178;11.566;2023-12-29T00:06:18;1.8;;;1.4;;
26824;SDS011;14402;48.178;11.566;2023-12-29T00:06:48;1.8;;;1.2;;
26824;SDS011;14402;48.178;11.566;2023-12-29T00:07:18;1.9;;;1.1;;
26824;SDS011;14402;48.178;11.566;2023-12-29T00:07:48;1.9;;;1.1;;
26824;SDS011;14402;48.178;11.566;2023-12-29T00:08:18;1.9;;;1.1;;
26824;SDS011;14402;48.178;11.566;2023-12-29T00:08:48;2.3;;;1.2;;
26824;SDS011;14402;48.178;11.566;2023-12-29T00:09:18;2.7;;;1.4;;
26824;SDS011;14402;48.178;11.566;2023-12-29T00:09:48;2.7;;;1.4;;
26824;SDS011;14402;48.178;11.566;2023-12-29T00:10:18;2.7;;;1.4;;
26824;SDS011;14402;48.178;11.566;2023-12-29T00:10:48;2.6;;;1.4;;
26824;SDS011;14402;48.178;11.566;2023-12-29T00:11:19;2.4;;;1.4;;
26824;SDS011;14402;48.178;11.566;2023-12-29T00:11:49;2.4;;;1.4;;
26824;SDS011;14402;48.178;11.566;2023-12-29T00:12:18;2.4;;;1.4;;
26824;SDS011;14402;48.178;11.566;2023-12-29T00:12:48;2.5;;;1.5;;
26824;SDS011;14402;48.178;11.566;2023-12-29T00:13:18;2.5;;;1.6;;
26824;SDS011;14402;48.178;11.566;2023-12-29T00:13:48;2.5;;;1.6;;
26824;SDS011;14402;48.178;11.566;2023-12-29T00:14:19;2.5;;;1.6;;
26824;SDS011;14402;48.178;11.566;2023-12-29T00:14:48;2.2;;;1.5;;
26824;SDS011;14402;48.178;11.566;2023-12-29T00:15:19;1.8;;;1.3;;
26824;SDS011;14402;48.178;11.566;2023-12-29T00:15:51;1.8;;;1.3;;
26824;SDS011;14402;48.178;11.566;2023-12-29T00:16:19;1.8;;;1.3;;
26824;SDS011;14402;48.178;11.566;2023-12-29T00:16:49;1.8;;;1.3;;
26824;SDS011;14402;48.178;11.566;2023-12-29T00:17:20;1.7;;;1.3;;
26824;SDS011;14402;48.178;11.566;2023-12-29T00:17:49;1.7;;;1.3;;
26824;SDS011;14402;48.178;11.566;2023-12-29T00:18:19;1.7;;;1.3;;
26824;SDS011;14402;48.178;11.566;2023-12-29T00:18:49;1.9;;;1.3;;
26824;SDS011;14402;48.178;11.566;2023-12-29T00:19:19;2.0;;;1.4;;
26824;SDS011;14402;48.178;11.566;2023-12-29T00:19:49;2.0;;;1.4;;
26824;SDS011;14402;48.178;11.566;2023-12-29T00:20:19;2.0;;;1.4;;
26824;SDS011;14402;48.178;11.566;2023-12-29T00:20:49;1.6;;;1.2;;
26824;SDS011;14402;48.178;11.566;2023-12-29T00:21:19;1.3;;;1.1;;
26824;SDS011;14402;48.178;11.566;2023-12-29T00:21:49;1.3;;;1.1;;
26824;SDS011;14402;48.178;11.566;2023-12-29T00:22:19;1.3;;;1.1;;
26824;SDS011;14402;48.178;11.566;2023-12-29T00:22:49;1.5;;;1.1;;
26824;SDS011;14402;48.178;11.566;2023-12-29T00:23:20;1.8;;;1.1;;
26824;SDS011;14402;48.178;11.566;2023-12-29T00:23:50;1.8;;;1.1;;
26824;SDS011;14402;48.178;11.566;2023-12-29T00:24:20;1.8;;;1.1;;
26824;SDS011;14402;48.178;11.566;2023-12-29T00:24:50;1.6;;;1.0;;
26824;SDS011;14402;48.178;11.566;2023-12-29T00:25:20;1.4;;;1.0;;
26824;SDS011;14402;48.178;11.566;2023-12-29T00:25:50;1.4;;;1.0;;
26824;SDS011;14402;48.178;11.566;2023-12-29T00:26:20;1.4;;;1.0;;
26824;SDS011;14402;48.178;11.566;2023-12-29T00:26:50;1.4;;;1.1;;
26824;SDS011;14402;48.178;11.566;2023-12-29T00:27:20;1.4;;;1.2;;
26824;SDS011;14402;48.178;11.566;2023-12-29T00:27:50;1.4;;;1.2;;
26824;SDS011;14402;48.178;11.566;2023-12-29T00:28:20;1.4;;;1.2;;
26824;SDS011;14402;48.178;11.566;2023-12-29T00:28:50;1.7;;;1.2;;
26824;SDS011;14402;48.178;11.566;2023-12-29T00:29:20;2.0;;;1.1;;
26824;SDS011;14402;48.178;11.566;2023-12-29T00:29:50;2.0;;;1.1;;
26824;SDS011;14402;48.178;11.566;2023-12-29T00:30:21;2.0;;;1.1;;
26824;SDS011;14402;48.178;11.566;2023-12-29T00:30:51;1.5;;;1.0;;
26824;SDS011;14402;48.178;11.566;2023-12-29T00:31:21;1.1;;;0.9;;
26824;SDS011;14402;48.178;11.566;2023-12-29T00:31:51;1.1;;;0.9;;
26824;SDS011;14402;48.178;11.566;2023-12-29T00:32:21;1.1;;;0.9;;
26824;SDS011;14402;48.178;11.566;2023-12-29T00:32:51;1.3;;;1.0;;
26824;SDS011;14402;48.178;11.566;2023-12-29T00:33:21;1.5;;;1.1;;
26824;SDS011;14402;48.178;11.566;2023-12-29T00:33:51;1.5;;;1.1;;
26824;SDS011;14402;48.178;11.566;2023-12-29T00:34:21;1.5;;;1.1;;
26824;SDS011;14402;48.178;11.566;2023-12-29T00:34:51;1.5;;;1.0;;
26824;SDS011;14402;48.178;11.566;2023-12-29T00:35:21;1.4;;;0.9;;
26824;SDS011;14402;48.178;11.566;2023-12-29T00:35:51;1.4;;;0.9;;
26824;SDS011;14402;48.178;11.566;2023-12-29T00:36:21;1.4;;;0.9;;
26824;SDS011;14402;48.178;11.566;2023-12-29T00:36:51;1.5;;;0.9;;
26824;SDS011;14402;48.178;11.566;2023-12-29T00:37:21;1.6;;;1.0;;
26824;SDS011;14402;48.178;11.566;2023-12-29T00:37:51;1.6;;;1.0;;
26824;SDS011;14402;48.178;11.566;2023-12-29T00:38:21;1.6;;;1.0;;
26824;SDS011;14402;48.178;11.566;2023-12-29T00:38:51;1.4;;;0.9;;
26824;SDS011;14402;48.178;11.566;2023-12-29T00:39:22;1.2;;;0.9;;
26824;SDS011;14402;48.178;11.566;2023-12-29T00:39:52;1.2;;;0.9;;
26824;SDS011;14402;48.178;11.566;2023-12-29T00:40:22;1.2;;;0.9;;
26824;SDS011;14402;48.178;11.566;2023-12-29T00:40:52;1.6;;;1.0;;
26824;SDS011;14402;48.178;11.566;2023-12-29T00:41:22;2.1;;;1.2;;
26824;SDS011;14402;48.178;11.566;2023-12-29T00:41:52;2.1;;;1.2;;
26824;SDS011;14402;48.178;11.566;2023-12-29T00:42:22;2.1;;;1.2;;
26824;SDS011;14402;48.178;11.566;2023-12-29T00:42:52;1.6;;;1.1;;
26824;SDS011;14402;48.178;11.566;2023-12-29T00:43:22;1.2;;;1.0;;
26824;SDS011;14402;48.178;11.566;2023-12-29T00:43:52;1.2;;;1.0;;
26824;SDS011;14402;48.178;11.566;2023-12-29T00:44:22;1.2;;;1.0;;
26824;SDS011;14402;48.178;11.566;2023-12-29T00:44:52;1.4;;;1.0;;
26824;SDS011;14402;48.178;11.566;2023-12-29T00:45:22;1.6;;;1.0;;
26824;SDS011;14402;48.178;11.566;2023-12-29T00:45:52;1.6;;;1.0;;
26824;SDS011;14402;48.178;11.566;2023-12-29T00:46:22;1.6;;;1.0;;
26824;SDS011;14402;48.178;11.566;2023-12-29T00:46:52;1.8;;;0.9;;
26824;SDS011;14402;48.178;11.566;2023-12-29T00:47:23;1.9;;;0.9;;
26824;SDS011;14402;48.178;11.566;2023-12-29T00:47:53;1.9;;;0.9;;
26824;SDS011;14402;48.178;11.566;2023-12-29T00:48:23;1.9;;;0.9;;
26824;SDS011;14402;48.178;11.566;2023-12-29T00:48:53;1.6;;;0.9;;
26824;SDS011;14402;48.178;11.566;2023-12-29T00:49:23;1.3;;;1.0;;
26824;SDS011;14402;48.178;11.566;2023-12-29T00:49:53;1.3;;;1.0;;
26824;SDS011;14402;48.178;11.566;2023-12-29T00:50:23;1.3;;;1.0;;
26824;SDS011;14402;48.178;11.566;2023-12-29T00:50:53;1.5;;;0.9;;
26824;SDS011;14402;48.178;11.566;2023-12-29T00:51:23;1.8;;;0.9;;
26824;SDS011;14402;48.178;11.566;2023-12-29T00:51:53;1.8;;;0.9;;
26824;SDS011;14402;48.178;11.566;2023-12-29T00:52:23;1.8;;;0.9;;
26824;SDS011;14402;48.178;11.566;2023-12-29T00:52:53;1.5;;;0.9;;
26824;SDS011;14402;48.178;11.566;2023-12-29T00:53:23;1.2;;;1.0;;
26824;SDS011;14402;48.178;11.566;2023-12-29T00:53:53;1.2;;;1.0;;
26824;SDS011;14402;48.178;11.566;2023-12-29T00:54:23;1.2;;;1.0;;
26824;SDS011;14402;48.178;11.566;2023-12-29T00:54:53;1.2;;;1.0;;
26824;SDS011;14402;48.178;11.566;2023-12-29T00:55:23;1.2;;;1.0;;
26824;SDS011;14402;48.178;11.566;2023-12-29T00:55:53;1.2;;;1.0;;
26824;SDS011;14402;48.178;11.566;2023-12-29T00:56:24;1.2;;;1.0;;
26824;SDS011;14402;48.178;11.566;2023-12-29T00:56:54;1.2;;;0.9;;
26824;SDS011;14402;48.178;11.566;2023-12-29T00:57:24;1.3;;;0.8;;
26824;SDS011;14402;48.178;11.566;2023-12-29T00:57:54;1.3;;;0.8;;
26824;SDS011;14402;48.178;11.566;2023-12-29T00:58:24;1.3;;;0.8;;
26824;SDS011;14402;48.178;11.566;2023-12-29T00:58:54;1.3;;;1.0;;
26824;SDS011;14402;48.178;11.566;2023-12-29T00:59:24;1.3;;;1.1;;
26824;SDS011;14402;48.178;11.566;2023-12-29T00:59:54;1.3;;;1.1;;
26824;SDS011;14402;48.178;11.566;2023-12-29T01:00:24;1.3;;;1.1;;
26824;SDS011;14402;48.178;11.566;2023-12-29T01:00:54;1.5;;;1.0;;
26824;SDS011;14402;48.178;11.566;2023-12-29T01:01:24;1.6;;;1.0;;
26824;SDS011;14402;48.178;11.566;2023-12-29T01:01:54;1.6;;;1.0;;
26824;SDS011;14402;48.178;11.566;2023-12-29T01:02:24;1.6;;;1.0;;
26824;SDS011;14402;48.178;11.566;2023-12-29T01:02:54;1.5;;;1.0;;
26824;SDS011;14402;48.178;11.566;2023-12-29T01:03:24;1.3;;;1.0;;
26824;SDS011;14402;48.178;11.566;2023-12-29T01:03:54;1.3;;;1.0;;
26824;SDS011;14402;48.178;11.566;2023-12-29T01:04:24;1.3;;;1.0;;
26824;SDS011;14402;48.178;11.566;2023-12-29T01:04:54;1.5;;;1.1;;
26824;SDS011;14402;48.178;11.566;2023-12-29T01:05:25;1.8;;;1.3;;
26824;SDS011;14402;48.178;11.566;2023-12-29T01:05:55;1.8;;;1.3;;
26824;SDS011;14402;48.178;11.566;2023-12-29T01:06:25;1.8;;;1.3;;
26824;SDS011;14402;48.178;11.566;2023-12-29T01:06:55;1.6;;;1.1;;
26824;SDS011;14402;48.178;11.566;2023-12-29T01:07:25;1.4;;;0.9;;
26824;SDS011;14402;48.178;11.566;2023-12-29T01:07:55;1.4;;;0.9;;
26824;SDS011;14402;48.178;11.566;2023-12-29T01:08:25;1.4;;;0.9;;
26824;SDS011;14402;48.178;11.566;2023-12-29T01:08:55;1.6;;;1.0;;
26824;SDS011;14402;48.178;11.566;2023-12-29T01:09:26;1.8;;;1.2;;
26824;SDS011;14402;48.178;11.566;2023-12-29T01:09:55;1.8;;;1.2;;
26824;SDS011;14402;48.178;11.566;2023-12-29T01:10:25;1.8;;;1.2;;
26824;SDS011;14402;48.178;11.566;2023-12-29T01:10:55;2.2;;;1.0;;
26824;SDS011;14402;48.178;11.566;2023-12-29T01:11:25;2.6;;;0.9;;
26824;SDS011;14402;48.178;11.566;2023-12-29T01:11:55;2.6;;;0.9;;
26824;SDS011;14402;48.178;11.566;2023-12-29T01:12:25;2.6;;;0.9;;
26824;SDS011;14402;48.178;11.566;2023-12-29T01:12:55;1.9;;;0.9;;
26824;SDS011;14402;48.178;11.566;2023-12-29T01:13:25;1.3;;;0.9;;
26824;SDS011;14402;48.178;11.566;2023-12-29T01:13:55;1.3;;;0.9;;
26824;SDS011;14402;48.178;11.566;2023-12-29T01:14:25;1.3;;;0.9;;
26824;SDS011;14402;48.178;11.566;2023-12-29T01:14:56;1.4;;;1.0;;
26824;SDS011;14402;48.178;11.566;2023-12-29T01:15:26;1.5;;;1.1;;
26824;SDS011;14402;48.178;11.566;2023-12-29T01:15:56;1.5;;;1.1;;
26824;SDS011;14402;48.178;11.566;2023-12-29T01:16:26;1.5;;;1.1;;
26824;SDS011;14402;48.178;11.566;2023-12-29T01:16:56;1.4;;;1.1;;
26824;SDS011;14402;48.178;11.566;2023-12-29T01:17:27;1.3;;;1.1;;
26824;SDS011;14402;48.178;11.566;2023-12-29T01:17:56;1.3;;;1.1;;
26824;SDS011;14402;48.178;11.566;2023-12-29T01:18:26;1.3;;;1.1;;
26824;SDS011;14402;48.178;11.566;2023-12-29T01:18:56;1.8;;;1.2;;
26824;SDS011;14402;48.178;11.566;2023-12-29T01:19:26;2.3;;;1.3;;
26824;SDS011;14402;48.178;11.566;2023-12-29T01:19:56;2.3;;;1.3;;
26824;SDS011;14402;48.178;11.566;2023-12-29T01:20:26;2.3;;;1.3;;
26824;SDS011;14402;48.178;11.566;2023-12-29T01:20:56;2.0;;;1.2;;
26824;SDS011;14402;48.178;11.566;2023-12-29T01:21:26;1.6;;;1.1;;
26824;SDS011;14402;48.178;11.566;2023-12-29T01:21:56;1.6;;;1.1;;
26824;SDS011;14402;48.178;11.566;2023-12-29T01:22:26;1.6;;;1.1;;
26824;SDS011;14402;48.178;11.566;2023-12-29T01:22:56;1.5;;;1.2;;
26824;SDS011;14402;48.178;11.566;2023-12-29T01:23:27;1.4;;;1.2;;
26824;SDS011;14402;48.178;11.566;2023-12-29T01:23:57;1.4;;;1.2;;
26824;SDS011;14402;48.178;11.566;2023-12-29T01:24:27;1.4;;;1.2;;
26824;SDS011;14402;48.178;11.566;2023-12-29T01:24:58;1.5;;;1.2;;
26824;SDS011;14402;48.178;11.566;2023-12-29T01:25:27;1.5;;;1.1;;
26824;SDS011;14402;48.178;11.566;2023-12-29T01:25:57;1.5;;;1.1;;
26824;SDS011;14402;48.178;11.566;2023-12-29T01:26:27;1.5;;;1.1;;
26824;SDS011;14402;48.178;11.566;2023-12-29T01:26:57;2.0;;;1.2;;
26824;SDS011;14402;48.178;11.566;2023-12-29T01:27:27;2.4;;;1.4;;
26824;SDS011;14402;48.178;11.566;2023-12-29T01:27:57;2.4;;;1.4;;
26824;SDS011;14402;48.178;11.566;2023-12-29T01:28:27;2.4;;;1.4;;
26824;SDS011;14402;48.178;11.566;2023-12-29T01:28:57;2.1;;;1.3;;
26824;SDS011;14402;48.178;11.566;2023-12-29T01:29:27;1.7;;;1.2;;
26824;SDS011;14402;48.178;11.566;2023-12-29T01:29:57;1.7;;;1.2;;
26824;SDS011;14402;48.178;11.566;2023-12-29T01:30:27;1.7;;;1.2;;
26824;SDS011;14402;48.178;11.566;2023-12-29T01:30:57;1.7;;;1.2;;
26824;SDS011;14402;48.178;11.566;2023-12-29T01:31:28;1.7;;;1.3;;
26824;SDS011;14402;48.178;11.566;2023-12-29T01:31:57;1.7;;;1.3;;
26824;SDS011;14402;48.178;11.566;2023-12-29T01:32:27;1.7;;;1.3;;
26824;SDS011;14402;48.178;11.566;2023-12-29T01:32:57;1.6;;;1.2;;
26824;SDS011;14402;48.178;11.566;2023-12-29T01:33:28;1.5;;;1.2;;
26824;SDS011;14402;48.178;11.566;2023-12-29T01:33:58;1.5;;;1.2;;
26824;SDS011;14402;48.178;11.566;2023-12-29T01:34:28;1.5;;;1.2;;
26824;SDS011;14402;48.178;11.566;2023-12-29T01:34:58;2.0;;;1.2;;
26824;SDS011;14402;48.178;11.566;2023-12-29T01:35:28;2.5;;;1.2;;
26824;SDS011;14402;48.178;11.566;2023-12-29T01:35:58;2.5;;;1.2;;
26824;SDS011;14402;48.178;11.566;2023-12-29T01:36:28;2.5;;;1.2;;
26824;SDS011;14402;48.178;11.566;2023-12-29T01:36:58;2.2;;;1.2;;
26824;SDS011;14402;48.178;11.566;2023-12-29T01:37:28;1.8;;;1.3;;
26824;SDS011;14402;48.178;11.566;2023-12-29T01:37:58;1.8;;;1.3;;
26824;SDS011;14402;48.178;11.566;2023-12-29T01:38:28;1.8;;;1.3;;
26824;SDS011;14402;48.178;11.566;2023-12-29T01:38:58;2.0;;;1.3;;
26824;SDS011;14402;48.178;11.566;2023-12-29T01:39:29;2.2;;;1.3;;
26824;SDS011;14402;48.178;11.566;2023-12-29T01:39:58;2.2;;;1.3;;
26824;SDS011;14402;48.178;11.566;2023-12-29T01:40:28;2.2;;;1.3;;
26824;SDS011;14402;48.178;11.566;2023-12-29T01:40:58;1.8;;;1.2;;
26824;SDS011;14402;48.178;11.566;2023-12-29T01:41:29;1.4;;;1.1;;
26824;SDS011;14402;48.178;11.566;2023-12-29T01:41:59;1.4;;;1.1;;
26824;SDS011;14402;48.178;11.566;2023-12-29T01:42:29;1.4;;;1.1;;
26824;SDS011;14402;48.178;11.566;2023-12-29T01:42:59;1.9;;;1.2;;
26824;SDS011;14402;48.178;11.566;2023-12-29T01:43:29;2.4;;;1.4;;
26824;SDS011;14402;48.178;11.566;2023-12-29T01:44:13;2.4;;;1.4;;
26824;SDS011;14402;48.178;11.566;2023-12-29T01:44:29;2.4;;;1.4;;
26824;SDS011;14402;48.178;11.566;2023-12-29T01:44:59;2.3;;;1.3;;
26824;SDS011;14402;48.178;11.566;2023-12-29T01:45:29;2.3;;;1.3;;
26824;SDS011;14402;48.178;11.566;2023-12-29T01:45:59;2.3;;;1.3;;
26824;SDS011;14402;48.178;11.566;2023-12-29T01:46:30;2.3;;;1.3;;
26824;SDS011;14402;48.178;11.566;2023-12-29T01:46:59;2.0;;;1.3;;
26824;SDS011;14402;48.178;11.566;2023-12-29T01:47:29;1.6;;;1.3;;
26824;SDS011;14402;48.178;11.566;2023-12-29T01:47:59;1.6;;;1.3;;
26824;SDS011;14402;48.178;11.566;2023-12-29T01:48:29;1.6;;;1.3;;
26824;SDS011;14402;48.178;11.566;2023-12-29T01:48:59;1.8;;;1.3;;
26824;SDS011;14402;48.178;11.566;2023-12-29T01:49:29;2.0;;;1.4;;
26824;SDS011;14402;48.178;11.566;2023-12-29T01:49:59;2.0;;;1.4;;
26824;SDS011;14402;48.178;11.566;2023-12-29T01:50:30;2.0;;;1.4;;
26824;SDS011;14402;48.178;11.566;2023-12-29T01:50:59;1.9;;;1.4;;
26824;SDS011;14402;48.178;11.566;2023-12-29T01:51:30;1.8;;;1.4;;
26824;SDS011;14402;48.178;11.566;2023-12-29T01:52:00;1.8;;;1.4;;
26824;SDS011;14402;48.178;11.566;2023-12-29T01:52:30;1.8;;;1.4;;
26824;SDS011;14402;48.178;11.566;2023-12-29T01:53:00;2.5;;;1.4;;
26824;SDS011;14402;48.178;11.566;2023-12-29T01:53:30;3.3;;;1.4;;
26824;SDS011;14402;48.178;11.566;2023-12-29T01:54:00;3.3;;;1.4;;
26824;SDS011;14402;48.178;11.566;2023-12-29T01:54:30;3.3;;;1.4;;
26824;SDS011;14402;48.178;11.566;2023-12-29T01:55:00;2.5;;;1.3;;
26824;SDS011;14402;48.178;11.566;2023-12-29T01:55:30;1.6;;;1.3;;
26824;SDS011;14402;48.178;11.566;2023-12-29T01:56:00;1.6;;;1.3;;
26824;SDS011;14402;48.178;11.566;2023-12-29T01:56:30;1.6;;;1.3;;
26824;SDS011;14402;48.178;11.566;2023-12-29T01:57:00;1.7;;;1.2;;
26824;SDS011;14402;48.178;11.566;2023-12-29T01:57:30;1.7;;;1.2;;
26824;SDS011;14402;48.178;11.566;2023-12-29T01:58:00;1.7;;;1.2;;
26824;SDS011;14402;48.178;11.566;2023-12-29T01:58:30;1.7;;;1.2;;
26824;SDS011;14402;48.178;11.566;2023-12-29T01:59:00;1.8;;;1.3;;
26824;SDS011;14402;48.178;11.566;2023-12-29T01:59:31;1.9;;;1.4;;
26824;SDS011;14402;48.178;11.566;2023-12-29T02:00:01;1.9;;;1.4;;
26824;SDS011;14402;48.178;11.566;2023-12-29T02:00:31;1.9;;;1.4;;
26824;SDS011;14402;48.178;11.566;2023-12-29T02:01:01;1.8;;;1.5;;
26824;SDS011;14402;48.178;11.566;2023-12-29T02:01:31;1.8;;;1.6;;
26824;SDS011;14402;48.178;11.566;2023-12-29T02:02:01;1.8;;;1.6;;
26824;SDS011;14402;48.178;11.566;2023-12-29T02:02:31;1.8;;;1.6;;
26824;SDS011;14402;48.178;11.566;2023-12-29T02:03:01;1.6;;;1.5;;
26824;SDS011;14402;48.178;11.566;2023-12-29T02:03:31;1.5;;;1.4;;
26824;SDS011;14402;48.178;11.566;2023-12-29T02:04:01;1.5;;;1.4;;
26824;SDS011;14402;48.178;11.566;2023-12-29T02:04:31;1.5;;;1.4;;
26824;SDS011;14402;48.178;11.566;2023-12-29T02:05:01;1.8;;;1.5;;
26824;SDS011;14402;48.178;11.566;2023-12-29T02:05:31;2.1;;;1.5;;
26824;SDS011;14402;48.178;11.566;2023-12-29T02:06:01;2.1;;;1.5;;
26824;SDS011;14402;48.178;11.566;2023-12-29T02:06:31;2.1;;;1.5;;
26824;SDS011;14402;48.178;11.566;2023-12-29T02:07:01;2.2;;;1.5;;
26824;SDS011;14402;48.178;11.566;2023-12-29T02:07:31;2.3;;;1.5;;
26824;SDS011;14402;48.178;11.566;2023-12-29T02:08:02;2.3;;;1.5;;
26824;SDS011;14402;48.178;11.566;2023-12-29T02:08:32;2.3;;;1.5;;
26824;SDS011;14402;48.178;11.566;2023-12-29T02:09:02;2.0;;;1.5;;
26824;SDS011;14402;48.178;11.566;2023-12-29T02:09:32;1.8;;;1.4;;
26824;SDS011;14402;48.178;11.566;2023-12-29T02:10:02;1.8;;;1.4;;
26824;SDS011;14402;48.178;11.566;2023-12-29T02:10:32;1.8;;;1.4;;
26824;SDS011;14402;48.178;11.566;2023-12-29T02:11:02;2.0;;;1.5;;
26824;SDS011;14402;48.178;11.566;2023-12-29T02:11:32;2.2;;;1.5;;
26824;SDS011;14402;48.178;11.566;2023-12-29T02:12:02;2.2;;;1.5;;
26824;SDS011;14402;48.178;11.566;2023-12-29T02:12:32;2.2;;;1.5;;
26824;SDS011;14402;48.178;11.566;2023-12-29T02:13:02;2.3;;;1.6;;
26824;SDS011;14402;48.178;11.566;2023-12-29T02:13:32;2.4;;;1.7;;
26824;SDS011;14402;48.178;11.566;2023-12-29T02:14:02;2.4;;;1.7;;
26824;SDS011;14402;48.178;11.566;2023-12-29T02:14:32;2.4;;;1.7;;
26824;SDS011;14402;48.178;11.566;2023-12-29T02:15:02;2.5;;;1.5;;
26824;SDS011;14402;48.178;11.566;2023-12-29T02:15:32;2.5;;;1.4;;
26824;SDS011;14402;48.178;11.566;2023-12-29T02:16:04;2.5;;;1.4;;
26824;SDS011;14402;48.178;11.566;2023-12-29T02:16:33;2.5;;;1.4;;
26824;SDS011;14402;48.178;11.566;2023-12-29T02:17:05;2.2;;;1.5;;
26824;SDS011;14402;48.178;11.566;2023-12-29T02:17:35;1.9;;;1.5;;
26824;SDS011;14402;48.178;11.566;2023-12-29T02:18:03;1.9;;;1.5;;
26824;SDS011;14402;48.178;11.566;2023-12-29T02:18:33;1.9;;;1.5;;
26824;SDS011;14402;48.178;11.566;2023-12-29T02:19:04;1.9;;;1.5;;
26824;SDS011;14402;48.178;11.566;2023-12-29T02:19:37;1.9;;;1.6;;
26824;SDS011;14402;48.178;11.566;2023-12-29T02:20:03;1.9;;;1.6;;
26824;SDS011;14402;48.178;11.566;2023-12-29T02:20:33;1.9;;;1.6;;
26824;SDS011;14402;48.178;11.566;2023-12-29T02:21:03;1.8;;;1.5;;
26824;SDS011;14402;48.178;11.566;2023-12-29T02:21:33;1.8;;;1.4;;
26824;SDS011;14402;48.178;11.566;2023-12-29T02:22:03;1.8;;;1.4;;
26824;SDS011;14402;48.178;11.566;2023-12-29T02:22:33;1.8;;;1.4;;
26824;SDS011;14402;48.178;11.566;2023-12-29T02:23:03;2.3;;;1.5;;
26824;SDS011;14402;48.178;11.566;2023-12-29T02:23:33;2.8;;;1.7;;
26824;SDS011;14402;48.178;11.566;2023-12-29T02:24:03;2.8;;;1.7;;
26824;SDS011;14402;48.178;11.566;2023-12-29T02:24:34;2.8;;;1.7;;
26824;SDS011;14402;48.178;11.566;2023-12-29T02:25:04;2.5;;;1.8;;
26824;SDS011;14402;48.178;11.566;2023-12-29T02:25:33;2.2;;;1.8;;
26824;SDS011;14402;48.178;11.566;2023-12-29T02:26:07;2.2;;;1.8;;
26824;SDS011;14402;48.178;11.566;2023-12-29T02:26:34;2.2;;;1.8;;
26824;SDS011;14402;48.178;11.566;2023-12-29T02:27:07;2.0;;;1.6;;
26824;SDS011;14402;48.178;11.566;2023-12-29T02:27:41;1.8;;;1.5;;
26824;SDS011;14402;48.178;11.566;2023-12-29T02:28:04;1.8;;;1.5;;
26824;SDS011;14402;48.178;11.566;2023-12-29T02:28:34;1.8;;;1.5;;
26824;SDS011;14402;48.178;11.566;2023-12-29T02:29:04;2.5;;;1.6;;
26824;SDS011;14402;48.178;11.566;2023-12-29T02:29:34;3.2;;;1.8;;
26824;SDS011;14402;48.178;11.566;2023-12-29T02:30:08;3.2;;;1.8;;
26824;SDS011;14402;48.178;11.566;2023-12-29T02:30:36;3.2;;;1.8;;
26824;SDS011;14402;48.178;11.566;2023-12-29T02:31:05;2.5;;;1.6;;
26824;SDS011;14402;48.178;11.566;2023-12-29T02:31:34;1.8;;;1.5;;
26824;SDS011;14402;48.178;11.566;2023-12-29T02:32:04;1.8;;;1.5;;
26824;SDS011;14402;48.178;11.566;2023-12-29T02:32:35;1.8;;;1.5;;
26824;SDS011;14402;48.178;11.566;2023-12-29T02:33:05;1.9;;;1.6;;
26824;SDS011;14402;48.178;11.566;2023-12-29T02:33:36;2.1;;;1.8;;
26824;SDS011;14402;48.178;11.566;2023-12-29T02:34:04;2.1;;;1.8;;
26824;SDS011;14402;48.178;11.566;2023-12-29T02:34:34;2.1;;;1.8;;
26824;SDS011;14402;48.178;11.566;2023-12-29T02:35:05;1.8;;;1.5;;
26824;SDS011;14402;48.178;11.566;2023-12-29T02:35:35;1.4;;;1.3;;
26824;SDS011;14402;48.178;11.566;2023-12-29T02:36:05;1.4;;;1.3;;
26824;SDS011;14402;48.178;11.566;2023-12-29T02:36:35;1.4;;;1.3;;
26824;SDS011;14402;48.178;11.566;2023-12-29T02:37:05;1.8;;;1.3;;
26824;SDS011;14402;48.178;11.566;2023-12-29T02:37:35;2.2;;;1.4;;
26824;SDS011;14402;48.178;11.566;2023-12-29T02:38:05;2.2;;;1.4;;
26824;SDS011;14402;48.178;11.566;2023-12-29T02:38:35;2.2;;;1.4;;
26824;SDS011;14402;48.178;11.566;2023-12-29T02:39:05;1.9;;;1.3;;
26824;SDS011;14402;48.178;11.566;2023-12-29T02:39:35;1.5;;;1.3;;
26824;SDS011;14402;48.178;11.566;2023-12-29T02:40:06;1.5;;;1.3;;
26824;SDS011;14402;48.178;11.566;2023-12-29T02:40:35;1.5;;;1.3;;
26824;SDS011;14402;48.178;11.566;2023-12-29T02:41:05;1.5;;;1.3;;
26824;SDS011;14402;48.178;11.566;2023-12-29T02:41:35;1.6;;;1.4;;
26824;SDS011;14402;48.178;11.566;2023-12-29T02:42:05;1.6;;;1.4;;
26824;SDS011;14402;48.178;11.566;2023-12-29T02:42:35;1.6;;;1.4;;
26824;SDS011;14402;48.178;11.566;2023-12-29T02:43:05;2.2;;;1.5;;
26824;SDS011;14402;48.178;11.566;2023-12-29T02:43:35;2.8;;;1.6;;
26824;SDS011;14402;48.178;11.566;2023-12-29T02:44:05;2.8;;;1.6;;
26824;SDS011;14402;48.178;11.566;2023-12-29T02:44:36;2.8;;;1.6;;
26824;SDS011;14402;48.178;11.566;2023-12-29T02:45:06;2.9;;;1.5;;
26824;SDS011;14402;48.178;11.566;2023-12-29T02:45:36;3.0;;;1.3;;
26824;SDS011;14402;48.178;11.566;2023-12-29T02:46:06;3.0;;;1.3;;
26824;SDS011;14402;48.178;11.566;2023-12-29T02:46:36;3.0;;;1.3;;
26824;SDS011;14402;48.178;11.566;2023-12-29T02:47:06;2.7;;;1.5;;
26824;SDS011;14402;48.178;11.566;2023-12-29T02:47:36;2.3;;;1.7;;
26824;SDS011;14402;48.178;11.566;2023-12-29T02:48:06;2.3;;;1.7;;
26824;SDS011;14402;48.178;11.566;2023-12-29T02:48:36;2.3;;;1.7;;
26824;SDS011;14402;48.178;11.566;2023-12-29T02:49:06;2.8;;;1.6;;
26824;SDS011;14402;48.178;11.566;2023-12-29T02:49:36;3.2;;;1.5;;
26824;SDS011;14402;48.178;11.566;2023-12-29T02:50:06;3.2;;;1.5;;
26824;SDS011;14402;48.178;11.566;2023-12-29T02:50:36;3.2;;;1.5;;
26824;SDS011;14402;48.178;11.566;2023-12-29T02:51:06;3.0;;;1.5;;
26824;SDS011;14402;48.178;11.566;2023-12-29T02:51:36;2.8;;;1.4;;
26824;SDS011;14402;48.178;11.566;2023-12-29T02:52:06;2.8;;;1.4;;
26824;SDS011;14402;48.178;11.566;2023-12-29T02:52:37;2.8;;;1.4;;
26824;SDS011;14402;48.178;11.566;2023-12-29T02:53:07;2.4;;;1.5;;
26824;SDS011;14402;48.178;11.566;2023-12-29T02:53:37;2.1;;;1.6;;
26824;SDS011;14402;48.178;11.566;2023-12-29T02:54:07;2.1;;;1.6;;
26824;SDS011;14402;48.178;11.566;2023-12-29T02:54:37;2.1;;;1.6;;
26824;SDS011;14402;48.178;11.566;2023-12-29T02:55:07;2.0;;;1.6;;
26824;SDS011;14402;48.178;11.566;2023-12-29T02:55:37;2.0;;;1.6;;
26824;SDS011;14402;48.178;11.566;2023-12-29T02:56:07;2.0;;;1.6;;
26824;SDS011;14402;48.178;11.566;2023-12-29T02:56:37;2.0;;;1.6;;
26824;SDS011;14402;48.178;11.566;2023-12-29T02:57:07;2.2;;;1.7;;
26824;SDS011;14402;48.178;11.566;2023-12-29T02:57:37;2.3;;;1.7;;
26824;SDS011;14402;48.178;11.566;2023-12-29T02:58:08;2.3;;;1.7;;
26824;SDS011;14402;48.178;11.566;2023-12-29T02:58:37;2.3;;;1.7;;
26824;SDS011;14402;48.178;11.566;2023-12-29T02:59:07;2.0;;;1.6;;
26824;SDS011;14402;48.178;11.566;2023-12-29T02:59:37;1.7;;;1.5;;
26824;SDS011;14402;48.178;11.566;2023-12-29T03:00:07;1.7;;;1.5;;
26824;SDS011;14402;48.178;11.566;2023-12-29T03:00:37;1.7;;;1.5;;
26824;SDS011;14402;48.178;11.566;2023-12-29T03:01:07;1.7;;;1.4;;
26824;SDS011;14402;48.178;11.566;2023-12-29T03:01:37;1.7;;;1.3;;
26824;SDS011;14402;48.178;11.566;2023-12-29T03:02:08;1.7;;;1.3;;
26824;SDS011;14402;48.178;11.566;2023-12-29T03:02:38;1.7;;;1.3;;
26824;SDS011;14402;48.178;11.566;2023-12-29T03:03:08;1.7;;;1.3;;
26824;SDS011;14402;48.178;11.566;2023-12-29T03:03:38;1.6;;;1.3;;